sensor_id;sensor_type;location;lat;lon;timestamp;temperature;humidity
11423;DHT22;5768;51.476;7.210;2023-12-04T00:04:33;4.30;14.60
11423;DHT22;5768;51.476;7.210;2023-12-04T00:09:37;4.30;14.30
11423;DHT22;5768;51.476;7.210;2023-12-04T00:14:39;4.30;14.30
11423;DHT22;5768;51.476;7.210;2023-12-04T00:19:41;4.10;14.30
11423;DHT22;5768;51.476;7.210;2023-12-04T00:24:45;4.00;14.20
11423;DHT22;5768;51.476;7.210;2023-12-04T00:29:47;4.10;14.10
11423;DHT22;5768;51.476;7.210;2023-12-04T00:34:49;4.10;14.10
11423;DHT22;5768;51.476;7.210;2023-12-04T00:39:53;4.10;14.00
11423;DHT22;5768;51.476;7.210;2023-12-04T00:44:55;4.20;13.90
11423;DHT22;5768;51.476;7.210;2023-12-04T00:49:58;4.20;13.90
11423;DHT22;5768;51.476;7.210;2023-12-04T00:55:02;4.10;13.90
11423;DHT22;5768;51.476;7.210;2023-12-04T01:00:05;4.10;13.80
11423;DHT22;5768;51.476;7.210;2023-12-04T01:05:08;4.10;13.70
11423;DHT22;5768;51.476;7.210;2023-12-04T01:10:12;4.20;13.70
11423;DHT22;5768;51.476;7.210;2023-12-04T01:15:14;4.30;13.70
11423;DHT22;5768;51.476;7.210;2023-12-04T01:20:18;4.20;13.60
11423;DHT22;5768;51.476;7.210;2023-12-04T01:25:22;4.10;13.70
11423;DHT22;5768;51.476;7.210;2023-12-04T01:30:24;4.00;13.50
11423;DHT22;5768;51.476;7.210;2023-12-04T01:35:26;3.90;13.50
11423;DHT22;5768;51.476;7.210;2023-12-04T01:40:30;3.90;13.50
11423;DHT22;5768;51.476;7.210;2023-12-04T01:45:32;3.90;13.60
11423;DHT22;5768;51.476;7.210;2023-12-04T01:50:35;3.90;13.50
11423;DHT22;5768;51.476;7.210;2023-12-04T01:55:41;3.90;13.40
11423;DHT22;5768;51.476;7.210;2023-12-04T02:00:43;3.90;13.50
11423;DHT22;5768;51.476;7.210;2023-12-04T02:05:47;4.00;13.40
11423;DHT22;5768;51.476;7.210;2023-12-04T02:10:51;4.10;13.30
11423;DHT22;5768;51.476;7.210;2023-12-04T02:15:54;4.10;13.30
11423;DHT22;5768;51.476;7.210;2023-12-04T02:21:00;4.20;13.20
11423;DHT22;5768;51.476;7.210;2023-12-04T02:26:09;4.20;13.20
11423;DHT22;5768;51.476;7.210;2023-12-04T02:31:16;4.20;13.10
11423;DHT22;5768;51.476;7.210;2023-12-04T02:36:21;4.30;13.10
11423;DHT22;5768;51.476;7.210;2023-12-04T02:41:27;4.40;12.90
11423;DHT22;5768;51.476;7.210;2023-12-04T02:46:29;4.20;12.90
11423;DHT22;5768;51.476;7.210;2023-12-04T02:51:31;4.30;12.90
11423;DHT22;5768;51.476;7.210;2023-12-04T02:56:35;4.20;12.80
11423;DHT22;5768;51.476;7.210;2023-12-04T03:01:37;4.20;12.80
11423;DHT22;5768;51.476;7.210;2023-12-04T03:06:39;4.10;12.70
11423;DHT22;5768;51.476;7.210;2023-12-04T03:11:44;4.10;12.50
11423;DHT22;5768;51.476;7.210;2023-12-04T03:16:46;4.00;12.50
11423;DHT22;5768;51.476;7.210;2023-12-04T03:21:48;4.20;12.40
11423;DHT22;5768;51.476;7.210;2023-12-04T03:26:52;4.10;12.40
11423;DHT22;5768;51.476;7.210;2023-12-04T03:31:54;4.00;12.10
11423;DHT22;5768;51.476;7.210;2023-12-04T03:36:56;4.10;12.10
11423;DHT22;5768;51.476;7.210;2023-12-04T03:42:00;4.10;12.10
11423;DHT22;5768;51.476;7.210;2023-12-04T03:47:02;4.20;12.00
11423;DHT22;5768;51.476;7.210;2023-12-04T03:52:05;4.20;11.90
11423;DHT22;5768;51.476;7.210;2023-12-04T03:57:09;4.20;12.00
11423;DHT22;5768;51.476;7.210;2023-12-04T04:02:11;4.40;11.80
11423;DHT22;5768;51.476;7.210;2023-12-04T04:07:16;4.30;11.70
11423;DHT22;5768;51.476;7.210;2023-12-04T04:12:20;4.40;11.60
11423;DHT22;5768;51.476;7.210;2023-12-04T04:17:22;4.40;11.60
11423;DHT22;5768;51.476;7.210;2023-12-04T04:22:26;4.50;11.60
11423;DHT22;5768;51.476;7.210;2023-12-04T04:27:30;4.60;11.50
11423;DHT22;5768;51.476;7.210;2023-12-04T04:32:32;4.40;11.40
11423;DHT22;5768;51.476;7.210;2023-12-04T04:37:34;4.40;11.40
11423;DHT22;5768;51.476;7.210;2023-12-04T04:42:38;4.40;11.30
11423;DHT22;5768;51.476;7.210;2023-12-04T04:47:40;4.40;11.40
11423;DHT22;5768;51.476;7.210;2023-12-04T04:52:42;4.40;11.30
11423;DHT22;5768;51.476;7.210;2023-12-04T04:57:46;4.40;11.30
11423;DHT22;5768;51.476;7.210;2023-12-04T05:02:48;4.40;11.30
11423;DHT22;5768;51.476;7.210;2023-12-04T05:07:51;4.50;11.20
11423;DHT22;5768;51.476;7.210;2023-12-04T05:12:54;4.40;11.20
11423;DHT22;5768;51.476;7.210;2023-12-04T05:17:56;4.40;11.30
11423;DHT22;5768;51.476;7.210;2023-12-04T05:22:58;4.40;11.50
11423;DHT22;5768;51.476;7.210;2023-12-04T05:28:02;4.40;11.40
11423;DHT22;5768;51.476;7.210;2023-12-04T05:33:05;4.40;11.50
11423;DHT22;5768;51.476;7.210;2023-12-04T05:38:08;4.30;11.50
11423;DHT22;5768;51.476;7.210;2023-12-04T05:43:11;4.40;11.70
11423;DHT22;5768;51.476;7.210;2023-12-04T05:48:13;4.40;11.50
11423;DHT22;5768;51.476;7.210;2023-12-04T05:53:16;4.30;11.40
11423;DHT22;5768;51.476;7.210;2023-12-04T05:58:20;4.40;11.50
11423;DHT22;5768;51.476;7.210;2023-12-04T06:03:22;4.40;11.40
11423;DHT22;5768;51.476;7.210;2023-12-04T06:08:24;4.30;11.40
11423;DHT22;5768;51.476;7.210;2023-12-04T06:13:28;4.30;11.30
11423;DHT22;5768;51.476;7.210;2023-12-04T06:18:30;4.30;11.30
11423;DHT22;5768;51.476;7.210;2023-12-04T06:23:33;4.40;11.40
11423;DHT22;5768;51.476;7.210;2023-12-04T06:28:37;4.40;11.40
11423;DHT22;5768;51.476;7.210;2023-12-04T06:33:40;4.40;11.30
11423;DHT22;5768;51.476;7.210;2023-12-04T06:38:43;4.30;11.40
11423;DHT22;5768;51.476;7.210;2023-12-04T06:43:51;4.30;11.40
11423;DHT22;5768;51.476;7.210;2023-12-04T06:48:55;4.40;11.40
11423;DHT22;5768;51.476;7.210;2023-12-04T06:54:01;4.20;11.30
11423;DHT22;5768;51.476;7.210;2023-12-04T06:59:04;4.40;11.40
11423;DHT22;5768;51.476;7.210;2023-12-04T07:04:06;4.40;11.50
11423;DHT22;5768;51.476;7.210;2023-12-04T07:09:10;4.30;11.50
11423;DHT22;5768;51.476;7.210;2023-12-04T07:14:14;4.20;11.50
11423;DHT22;5768;51.476;7.210;2023-12-04T07:19:16;4.10;11.50
11423;DHT22;5768;51.476;7.210;2023-12-04T07:24:18;4.20;11.50
11423;DHT22;5768;51.476;7.210;2023-12-04T07:29:22;4.00;11.40
11423;DHT22;5768;51.476;7.210;2023-12-04T07:34:24;4.10;11.40
11423;DHT22;5768;51.476;7.210;2023-12-04T07:39:27;4.20;11.50
11423;DHT22;5768;51.476;7.210;2023-12-04T07:44:31;4.10;11.40
11423;DHT22;5768;51.476;7.210;2023-12-04T07:49:33;4.20;11.40
11423;DHT22;5768;51.476;7.210;2023-12-04T07:54:35;4.30;11.30
11423;DHT22;5768;51.476;7.210;2023-12-04T07:59:39;4.40;11.20
11423;DHT22;5768;51.476;7.210;2023-12-04T08:04:41;4.50;11.20
11423;DHT22;5768;51.476;7.210;2023-12-04T08:09:43;4.60;11.20
11423;DHT22;5768;51.476;7.210;2023-12-04T08:14:47;4.40;11.10
11423;DHT22;5768;51.476;7.210;2023-12-04T08:19:49;4.50;11.10
11423;DHT22;5768;51.476;7.210;2023-12-04T08:24:51;4.50;11.10
11423;DHT22;5768;51.476;7.210;2023-12-04T08:29:55;4.60;11.10
11423;DHT22;5768;51.476;7.210;2023-12-04T08:34:57;4.70;11.00
11423;DHT22;5768;51.476;7.210;2023-12-04T08:40:00;4.90;11.00
11423;DHT22;5768;51.476;7.210;2023-12-04T08:45:06;4.90;10.90
11423;DHT22;5768;51.476;7.210;2023-12-04T08:50:09;4.90;10.90
11423;DHT22;5768;51.476;7.210;2023-12-04T08:55:12;5.20;10.80
11423;DHT22;5768;51.476;7.210;2023-12-04T09:00:16;5.00;10.70
11423;DHT22;5768;51.476;7.210;2023-12-04T09:05:19;5.20;10.70
11423;DHT22;5768;51.476;7.210;2023-12-04T09:10:21;5.30;10.60
11423;DHT22;5768;51.476;7.210;2023-12-04T09:15:24;5.50;10.60
11423;DHT22;5768;51.476;7.210;2023-12-04T09:20:27;5.40;10.50
11423;DHT22;5768;51.476;7.210;2023-12-04T09:25:29;5.60;10.50
11423;DHT22;5768;51.476;7.210;2023-12-04T09:30:33;5.60;10.50
11423;DHT22;5768;51.476;7.210;2023-12-04T09:35:37;5.70;10.40
11423;DHT22;5768;51.476;7.210;2023-12-04T09:40:41;5.70;10.30
11423;DHT22;5768;51.476;7.210;2023-12-04T09:45:44;5.90;10.50
11423;DHT22;5768;51.476;7.210;2023-12-04T09:50:47;6.10;10.50
11423;DHT22;5768;51.476;7.210;2023-12-04T09:55:50;6.20;10.70
11423;DHT22;5768;51.476;7.210;2023-12-04T10:00:54;6.20;10.80
11423;DHT22;5768;51.476;7.210;2023-12-04T10:05:59;6.30;11.00
11423;DHT22;5768;51.476;7.210;2023-12-04T10:11:01;6.30;11.10
11423;DHT22;5768;51.476;7.210;2023-12-04T10:16:05;6.20;11.00
11423;DHT22;5768;51.476;7.210;2023-12-04T10:21:09;6.30;10.90
11423;DHT22;5768;51.476;7.210;2023-12-04T10:26:14;6.40;10.80
11423;DHT22;5768;51.476;7.210;2023-12-04T10:31:19;6.30;10.70
11423;DHT22;5768;51.476;7.210;2023-12-04T10:36:21;6.40;10.70
11423;DHT22;5768;51.476;7.210;2023-12-04T10:41:24;6.50;10.70
11423;DHT22;5768;51.476;7.210;2023-12-04T10:46:29;6.50;10.80
11423;DHT22;5768;51.476;7.210;2023-12-04T10:51:32;6.50;10.70
11423;DHT22;5768;51.476;7.210;2023-12-04T10:56:36;6.40;10.80
11423;DHT22;5768;51.476;7.210;2023-12-04T11:01:44;6.40;10.80
11423;DHT22;5768;51.476;7.210;2023-12-04T11:06:52;6.40;10.80
11423;DHT22;5768;51.476;7.210;2023-12-04T11:11:59;6.40;10.80
11423;DHT22;5768;51.476;7.210;2023-12-04T11:17:09;6.60;10.90
11423;DHT22;5768;51.476;7.210;2023-12-04T11:22:14;6.30;11.00
11423;DHT22;5768;51.476;7.210;2023-12-04T11:27:21;6.40;11.00
11423;DHT22;5768;51.476;7.210;2023-12-04T11:32:28;6.30;11.00
11423;DHT22;5768;51.476;7.210;2023-12-04T11:37:31;6.30;11.20
11423;DHT22;5768;51.476;7.210;2023-12-04T11:42:34;6.30;11.20
11423;DHT22;5768;51.476;7.210;2023-12-04T11:47:51;6.10;11.20
11423;DHT22;5768;51.476;7.210;2023-12-04T11:52:54;6.10;11.30
11423;DHT22;5768;51.476;7.210;2023-12-04T11:57:57;6.20;11.40
11423;DHT22;5768;51.476;7.210;2023-12-04T12:03:05;6.40;11.50
11423;DHT22;5768;51.476;7.210;2023-12-04T12:08:10;6.40;11.60
11423;DHT22;5768;51.476;7.210;2023-12-04T12:13:15;6.60;11.80
11423;DHT22;5768;51.476;7.210;2023-12-04T12:18:19;6.60;11.80
11423;DHT22;5768;51.476;7.210;2023-12-04T12:23:24;6.60;12.00
11423;DHT22;5768;51.476;7.210;2023-12-04T12:28:28;6.50;12.10
11423;DHT22;5768;51.476;7.210;2023-12-04T12:33:32;6.40;12.10
11423;DHT22;5768;51.476;7.210;2023-12-04T12:38:36;6.40;12.30
11423;DHT22;5768;51.476;7.210;2023-12-04T12:43:38;6.50;12.30
11423;DHT22;5768;51.476;7.210;2023-12-04T12:48:44;6.30;12.50
11423;DHT22;5768;51.476;7.210;2023-12-04T12:53:48;6.30;12.60
11423;DHT22;5768;51.476;7.210;2023-12-04T12:58:50;6.20;12.70
11423;DHT22;5768;51.476;7.210;2023-12-04T13:03:57;6.20;12.80
11423;DHT22;5768;51.476;7.210;2023-12-04T13:09:00;6.00;12.90
11423;DHT22;5768;51.476;7.210;2023-12-04T13:14:06;5.90;13.00
11423;DHT22;5768;51.476;7.210;2023-12-04T13:19:10;5.90;13.20
11423;DHT22;5768;51.476;7.210;2023-12-04T13:24:15;5.90;13.20
11423;DHT22;5768;51.476;7.210;2023-12-04T13:29:18;5.90;13.40
11423;DHT22;5768;51.476;7.210;2023-12-04T13:34:21;5.90;13.50
11423;DHT22;5768;51.476;7.210;2023-12-04T13:39:24;5.80;13.60
11423;DHT22;5768;51.476;7.210;2023-12-04T13:44:47;6.00;13.60
11423;DHT22;5768;51.476;7.210;2023-12-04T13:49:53;6.20;13.60
11423;DHT22;5768;51.476;7.210;2023-12-04T13:54:56;6.10;13.60
11423;DHT22;5768;51.476;7.210;2023-12-04T13:59:59;6.40;13.60
11423;DHT22;5768;51.476;7.210;2023-12-04T14:05:03;6.70;13.50
11423;DHT22;5768;51.476;7.210;2023-12-04T14:10:07;6.40;13.50
11423;DHT22;5768;51.476;7.210;2023-12-04T14:15:10;6.50;13.70
11423;DHT22;5768;51.476;7.210;2023-12-04T14:20:15;6.30;13.70
11423;DHT22;5768;51.476;7.210;2023-12-04T14:25:19;6.30;13.80
11423;DHT22;5768;51.476;7.210;2023-12-04T14:30:21;6.20;14.00
11423;DHT22;5768;51.476;7.210;2023-12-04T14:35:25;6.10;14.10
11423;DHT22;5768;51.476;7.210;2023-12-04T14:40:28;6.10;14.10
11423;DHT22;5768;51.476;7.210;2023-12-04T14:45:31;6.00;14.20
11423;DHT22;5768;51.476;7.210;2023-12-04T14:50:35;6.00;14.40
11423;DHT22;5768;51.476;7.210;2023-12-04T14:55:40;6.00;14.40
11423;DHT22;5768;51.476;7.210;2023-12-04T15:00:59;6.00;14.40
11423;DHT22;5768;51.476;7.210;2023-12-04T15:06:21;5.80;14.60
11423;DHT22;5768;51.476;7.210;2023-12-04T15:11:40;6.00;14.70
11423;DHT22;5768;51.476;7.210;2023-12-04T15:17:07;6.00;14.70
11423;DHT22;5768;51.476;7.210;2023-12-04T15:22:20;5.90;14.70
11423;DHT22;5768;51.476;7.210;2023-12-04T15:27:23;5.80;14.80
11423;DHT22;5768;51.476;7.210;2023-12-04T15:32:25;5.80;14.90
11423;DHT22;5768;51.476;7.210;2023-12-04T15:37:28;5.80;14.90
11423;DHT22;5768;51.476;7.210;2023-12-04T15:42:31;5.80;15.00
11423;DHT22;5768;51.476;7.210;2023-12-04T15:47:33;5.80;15.00
11423;DHT22;5768;51.476;7.210;2023-12-04T15:52:37;5.90;15.00
11423;DHT22;5768;51.476;7.210;2023-12-04T15:57:41;5.80;15.00
11423;DHT22;5768;51.476;7.210;2023-12-04T16:02:43;5.70;14.90
11423;DHT22;5768;51.476;7.210;2023-12-04T16:07:47;5.70;14.80
11423;DHT22;5768;51.476;7.210;2023-12-04T16:12:50;5.80;14.90
11423;DHT22;5768;51.476;7.210;2023-12-04T16:17:52;5.80;14.70
11423;DHT22;5768;51.476;7.210;2023-12-04T16:22:56;5.80;14.90
11423;DHT22;5768;51.476;7.210;2023-12-04T16:27:59;5.60;15.00
11423;DHT22;5768;51.476;7.210;2023-12-04T16:33:01;5.50;15.30
11423;DHT22;5768;51.476;7.210;2023-12-04T16:38:05;5.50;15.50
11423;DHT22;5768;51.476;7.210;2023-12-04T16:43:08;5.60;15.40
11423;DHT22;5768;51.476;7.210;2023-12-04T16:48:10;5.60;15.60
11423;DHT22;5768;51.476;7.210;2023-12-04T16:53:14;5.50;15.90
11423;DHT22;5768;51.476;7.210;2023-12-04T16:58:17;5.50;16.10
11423;DHT22;5768;51.476;7.210;2023-12-04T17:03:22;5.40;16.50
11423;DHT22;5768;51.476;7.210;2023-12-04T17:08:26;5.40;16.90
11423;DHT22;5768;51.476;7.210;2023-12-04T17:13:28;5.40;17.10
11423;DHT22;5768;51.476;7.210;2023-12-04T17:18:31;5.40;17.10
11423;DHT22;5768;51.476;7.210;2023-12-04T17:23:35;5.50;17.10
11423;DHT22;5768;51.476;7.210;2023-12-04T17:28:37;5.50;17.10
11423;DHT22;5768;51.476;7.210;2023-12-04T17:33:40;5.30;17.10
11423;DHT22;5768;51.476;7.210;2023-12-04T17:38:44;5.40;17.10
11423;DHT22;5768;51.476;7.210;2023-12-04T17:43:48;5.40;17.20
11423;DHT22;5768;51.476;7.210;2023-12-04T17:48:50;5.30;17.10
11423;DHT22;5768;51.476;7.210;2023-12-04T17:53:54;5.20;17.20
11423;DHT22;5768;51.476;7.210;2023-12-04T17:58:59;5.40;17.40
11423;DHT22;5768;51.476;7.210;2023-12-04T18:04:02;5.40;17.50
11423;DHT22;5768;51.476;7.210;2023-12-04T18:09:06;5.30;17.70
11423;DHT22;5768;51.476;7.210;2023-12-04T18:14:08;5.50;17.70
11423;DHT22;5768;51.476;7.210;2023-12-04T18:19:10;5.50;17.40
11423;DHT22;5768;51.476;7.210;2023-12-04T18:24:14;5.50;17.60
11423;DHT22;5768;51.476;7.210;2023-12-04T18:29:18;5.40;17.70
11423;DHT22;5768;51.476;7.210;2023-12-04T18:34:24;5.50;17.60
11423;DHT22;5768;51.476;7.210;2023-12-04T18:39:31;5.50;17.50
11423;DHT22;5768;51.476;7.210;2023-12-04T18:44:35;5.50;17.50
11423;DHT22;5768;51.476;7.210;2023-12-04T18:49:38;5.60;17.50
11423;DHT22;5768;51.476;7.210;2023-12-04T18:54:42;5.50;17.60
11423;DHT22;5768;51.476;7.210;2023-12-04T18:59:45;5.70;18.00
11423;DHT22;5768;51.476;7.210;2023-12-04T19:04:48;5.60;18.10
11423;DHT22;5768;51.476;7.210;2023-12-04T19:09:51;5.70;18.00
11423;DHT22;5768;51.476;7.210;2023-12-04T19:14:54;5.80;17.80
11423;DHT22;5768;51.476;7.210;2023-12-04T19:19:59;5.80;17.80
11423;DHT22;5768;51.476;7.210;2023-12-04T19:25:04;5.90;17.90
11423;DHT22;5768;51.476;7.210;2023-12-04T19:30:08;5.90;17.80
11423;DHT22;5768;51.476;7.210;2023-12-04T19:35:10;5.80;18.00
11423;DHT22;5768;51.476;7.210;2023-12-04T19:40:14;5.90;18.10
11423;DHT22;5768;51.476;7.210;2023-12-04T19:45:17;5.80;18.30
11423;DHT22;5768;51.476;7.210;2023-12-04T19:50:19;5.70;18.50
11423;DHT22;5768;51.476;7.210;2023-12-04T19:55:24;5.70;18.60
11423;DHT22;5768;51.476;7.210;2023-12-04T20:00:26;5.90;18.50
11423;DHT22;5768;51.476;7.210;2023-12-04T20:05:30;6.00;18.40
11423;DHT22;5768;51.476;7.210;2023-12-04T20:10:36;6.00;18.40
11423;DHT22;5768;51.476;7.210;2023-12-04T20:15:38;6.10;18.40
11423;DHT22;5768;51.476;7.210;2023-12-04T20:20:41;6.10;18.40
11423;DHT22;5768;51.476;7.210;2023-12-04T20:25:45;6.20;18.50
11423;DHT22;5768;51.476;7.210;2023-12-04T20:30:48;6.30;18.50
11423;DHT22;5768;51.476;7.210;2023-12-04T20:35:50;6.20;18.50
11423;DHT22;5768;51.476;7.210;2023-12-04T20:40:56;6.20;18.70
11423;DHT22;5768;51.476;7.210;2023-12-04T20:45:59;6.20;18.90
11423;DHT22;5768;51.476;7.210;2023-12-04T20:51:04;6.40;18.80
11423;DHT22;5768;51.476;7.210;2023-12-04T20:56:16;6.40;18.80
11423;DHT22;5768;51.476;7.210;2023-12-04T21:01:25;6.40;18.90
11423;DHT22;5768;51.476;7.210;2023-12-04T21:06:28;6.40;18.90
11423;DHT22;5768;51.476;7.210;2023-12-04T21:11:31;6.50;19.00
11423;DHT22;5768;51.476;7.210;2023-12-04T21:16:35;6.50;18.80
11423;DHT22;5768;51.476;7.210;2023-12-04T21:21:41;6.40;19.00
11423;DHT22;5768;51.476;7.210;2023-12-04T21:26:46;6.40;18.90
11423;DHT22;5768;51.476;7.210;2023-12-04T21:31:49;6.40;18.90
11423;DHT22;5768;51.476;7.210;2023-12-04T21:36:51;6.40;18.80
11423;DHT22;5768;51.476;7.210;2023-12-04T21:41:55;6.40;18.60
11423;DHT22;5768;51.476;7.210;2023-12-04T21:46:57;6.40;18.90
11423;DHT22;5768;51.476;7.210;2023-12-04T21:52:00;6.20;19.40
11423;DHT22;5768;51.476;7.210;2023-12-04T21:57:03;6.40;19.40
11423;DHT22;5768;51.476;7.210;2023-12-04T22:02:06;6.30;19.30
11423;DHT22;5768;51.476;7.210;2023-12-04T22:07:08;6.20;19.10
11423;DHT22;5768;51.476;7.210;2023-12-04T22:12:12;6.40;19.20
11423;DHT22;5768;51.476;7.210;2023-12-04T22:17:14;6.50;19.10
11423;DHT22;5768;51.476;7.210;2023-12-04T22:22:17;6.60;19.00
11423;DHT22;5768;51.476;7.210;2023-12-04T22:27:22;6.60;19.00
11423;DHT22;5768;51.476;7.210;2023-12-04T22:32:24;6.50;19.20
11423;DHT22;5768;51.476;7.210;2023-12-04T22:37:27;6.50;19.40
11423;DHT22;5768;51.476;7.210;2023-12-04T22:42:30;6.40;19.40
11423;DHT22;5768;51.476;7.210;2023-12-04T22:47:33;6.50;19.60
11423;DHT22;5768;51.476;7.210;2023-12-04T22:52:35;6.60;19.40
11423;DHT22;5768;51.476;7.210;2023-12-04T22:57:42;6.40;19.50
11423;DHT22;5768;51.476;7.210;2023-12-04T23:02:47;6.60;19.50
11423;DHT22;5768;51.476;7.210;2023-12-04T23:07:50;6.50;19.50
11423;DHT22;5768;51.476;7.210;2023-12-04T23:12:54;6.60;19.40
11423;DHT22;5768;51.476;7.210;2023-12-04T23:17:58;6.70;19.30
11423;DHT22;5768;51.476;7.210;2023-12-04T23:23:01;6.70;19.20
11423;DHT22;5768;51.476;7.210;2023-12-04T23:28:05;6.80;19.20
11423;DHT22;5768;51.476;7.210;2023-12-04T23:33:13;6.70;19.00
11423;DHT22;5768;51.476;7.210;2023-12-04T23:38:15;6.70;19.30
11423;DHT22;5768;51.476;7.210;2023-12-04T23:43:19;6.80;19.20
11423;DHT22;5768;51.476;7.210;2023-12-04T23:48:21;6.70;19.30
11423;DHT22;5768;51.476;7.210;2023-12-04T23:53:23;6.90;19.30
11423;DHT22;5768;51.476;7.210;2023-12-04T23:58:30;6.80;19.30
